Time;durP1;ratioP1;P1;durP2;ratioP2;P2;SDS_P1;SDS_P2;PMS_P1;PMS_P2;Temp;Humidity;BMP_temperature;BMP_pressure;BME280_temperature;BME280_humidity;BME280_pressure;Samples;Min_cycle;Max_cycle;Signal;HPM_P1;HPM_P2
2023/01/29 00:01:52;;;;;;;48.87;25.17;;;0.80;94.00;;;;;;5016618;28;20455;-56
2023/01/29 00:04:19;;;;;;;50.30;22.60;;;0.70;94.00;;;;;;5016932;28;20558;-56
2023/01/29 00:06:47;;;;;;;47.70;24.10;;;0.70;93.90;;;;;;5016958;28;20451;-57
2023/01/29 00:09:14;;;;;;;46.47;23.57;;;0.70;93.90;;;;;;5017023;28;20494;-57
2023/01/29 00:11:41;;;;;;;52.70;24.50;;;0.70;93.90;;;;;;5016890;28;20455;-56
2023/01/29 00:14:09;;;;;;;53.30;24.63;;;0.70;93.90;;;;;;5016628;28;20471;-56
2023/01/29 00:16:36;;;;;;;59.50;26.67;;;0.70;94.00;;;;;;5016755;28;20440;-57
2023/01/29 00:19:03;;;;;;;53.43;23.93;;;0.70;94.00;;;;;;5016714;28;20448;-56
2023/01/29 00:21:30;;;;;;;53.03;24.93;;;0.70;93.90;;;;;;5016354;28;20972;-57
2023/01/29 00:23:59;;;;;;;49.77;24.00;;;0.70;94.00;;;;;;5016372;28;20472;-57
2023/01/29 00:26:27;;;;;;;56.93;24.67;;;0.70;94.10;;;;;;5016583;28;20447;-56
2023/01/29 00:28:55;;;;;;;65.53;24.20;;;0.70;94.20;;;;;;5016484;28;20490;-56
2023/01/29 00:31:25;;;;;;;48.30;24.27;;;0.70;94.30;;;;;;5016437;28;20479;-57
2023/01/29 00:33:52;;;;;;;57.80;23.00;;;0.70;94.40;;;;;;5016337;28;20558;-56
2023/01/29 00:36:21;;;;;;;61.97;22.73;;;0.70;94.40;;;;;;5016273;28;20452;-56
2023/01/29 00:38:53;;;;;;;52.70;23.40;;;0.70;94.40;;;;;;5015935;28;20459;-57
2023/01/29 00:47:29;;;;;;;55.00;23.90;;;0.70;94.10;;;;;;4994302;28;20987;-57
2023/01/29 00:49:53;;;;;;;46.50;22.30;;;0.70;94.40;;;;;;5009622;28;20463;-57
2023/01/29 00:52:26;;;;;;;43.80;23.23;;;0.70;94.50;;;;;;5015951;28;20458;-57
2023/01/29 00:54:54;;;;;;;47.77;23.17;;;0.70;94.50;;;;;;5016035;28;20457;-56
2023/01/29 00:57:22;;;;;;;56.23;25.07;;;0.70;94.60;;;;;;5016062;28;20447;-56
2023/01/29 00:59:49;;;;;;;50.00;23.57;;;0.70;94.60;;;;;;5015585;28;20432;-56
2023/01/29 01:05:01;;;;;;;64.57;27.00;;;0.60;94.50;;;;;;5015461;28;20478;-58
2023/01/29 01:07:28;;;;;;;56.53;23.50;;;0.60;94.50;;;;;;5015467;28;20928;-56
2023/01/29 01:12:41;;;;;;;53.47;25.23;;;0.60;94.40;;;;;;5015422;28;20620;-57
2023/01/29 01:15:09;;;;;;;58.07;25.67;;;0.60;94.50;;;;;;5015630;28;20455;-57
2023/01/29 01:17:35;;;;;;;46.20;22.50;;;0.60;94.50;;;;;;5015608;28;20451;-57
2023/01/29 01:20:03;;;;;;;56.70;22.80;;;0.60;94.60;;;;;;5015510;28;20483;-57
2023/01/29 01:22:30;;;;;;;61.27;24.03;;;0.60;94.60;;;;;;5015132;28;20990;-56
2023/01/29 01:24:57;;;;;;;53.50;24.20;;;0.60;94.60;;;;;;5015376;28;20506;-56
2023/01/29 01:27:24;;;;;;;52.73;24.70;;;0.60;94.60;;;;;;5015423;28;20462;-57
2023/01/29 01:29:52;;;;;;;50.80;23.13;;;0.60;94.60;;;;;;5015037;28;20996;-57
2023/01/29 01:32:19;;;;;;;62.87;23.13;;;0.60;94.70;;;;;;5015166;28;20487;-57
2023/01/29 01:34:46;;;;;;;59.30;23.70;;;0.60;94.90;;;;;;5015514;28;20455;-57
2023/01/29 01:37:12;;;;;;;55.50;24.00;;;0.60;94.50;;;;;;5015176;28;20925;-57
2023/01/29 01:39:39;;;;;;;57.90;22.87;;;0.50;94.40;;;;;;5015105;28;20439;-57
2023/01/29 01:42:12;;;;;;;51.57;23.00;;;0.50;94.70;;;;;;5015035;28;20479;-57
2023/01/29 01:44:55;;;;;;;54.87;25.10;;;0.50;94.50;;;;;;5015114;28;20443;-57
2023/01/29 01:47:28;;;;;;;67.47;24.10;;;0.50;94.50;;;;;;5015075;28;20502;-56
2023/01/29 01:49:58;;;;;;;42.33;22.67;;;0.50;94.70;;;;;;5014923;28;20494;-57
2023/01/29 01:52:25;;;;;;;49.40;22.20;;;0.50;94.80;;;;;;5014525;28;20566;-57
2023/01/29 01:54:52;;;;;;;60.43;24.97;;;0.50;94.90;;;;;;5014882;28;20469;-57
2023/01/29 01:57:24;;;;;;;51.30;21.77;;;0.50;94.90;;;;;;5014877;28;20459;-57
2023/01/29 01:59:56;;;;;;;54.70;23.80;;;0.50;95.00;;;;;;5014840;28;20433;-56
2023/01/29 02:10:41;;;;;;;53.73;22.80;;;0.50;94.80;;;;;;5014549;28;20465;-56
2023/01/29 02:13:09;;;;;;;49.40;22.60;;;0.40;94.70;;;;;;5014405;28;20479;-59
2023/01/29 02:15:47;;;;;;;49.40;22.47;;;0.40;94.70;;;;;;5014127;28;20839;-57
2023/01/29 02:18:15;;;;;;;51.23;23.77;;;0.40;94.70;;;;;;5014588;28;20470;-57
2023/01/29 02:20:44;;;;;;;44.33;23.43;;;0.40;94.80;;;;;;5014503;28;20432;-57
2023/01/29 02:23:37;;;;;;;58.70;23.33;;;0.40;94.80;;;;;;5013559;28;20472;-56
2023/01/29 02:26:29;;;;;;;43.30;22.60;;;0.40;94.80;;;;;;5014426;28;20444;-56
2023/01/29 02:29:21;;;;;;;39.63;23.47;;;0.40;94.70;;;;;;5014303;28;20522;-57
2023/01/29 02:31:52;;;;;;;47.13;22.60;;;0.40;94.70;;;;;;5014058;28;20964;-57
2023/01/29 02:34:27;;;;;;;58.53;23.30;;;0.30;94.70;;;;;;5014085;28;20479;-56
2023/01/29 02:37:01;;;;;;;48.50;23.20;;;0.30;94.60;;;;;;5014931;28;20452;-55
2023/01/29 02:39:34;;;;;;;59.17;23.77;;;0.30;94.60;;;;;;5014094;28;20428;-56
2023/01/29 02:42:10;;;;;;;48.63;23.03;;;0.20;94.60;;;;;;5013987;28;20436;-56
2023/01/29 02:44:43;;;;;;;56.17;24.93;;;0.20;94.70;;;;;;5014094;28;20436;-56
2023/01/29 02:47:16;;;;;;;43.00;22.73;;;0.20;94.80;;;;;;5014075;28;20432;-56
2023/01/29 02:49:48;;;;;;;44.33;22.40;;;0.20;94.90;;;;;;5013895;28;20480;-57
2023/01/29 02:52:19;;;;;;;55.40;24.87;;;0.20;95.10;;;;;;5014266;28;20436;-57
2023/01/29 02:54:51;;;;;;;61.23;25.80;;;0.30;95.20;;;;;;5014058;28;20454;-57
2023/01/29 02:57:21;;;;;;;53.43;24.83;;;0.30;95.40;;;;;;5013979;28;20428;-57
2023/01/29 02:59:54;;;;;;;53.23;24.27;;;0.30;95.70;;;;;;5013835;28;20811;-57
2023/01/29 03:02:28;;;;;;;54.43;27.77;;;0.30;95.90;;;;;;5013527;28;20983;-57
2023/01/29 03:05:01;;;;;;;70.63;27.57;;;0.30;96.20;;;;;;5013841;28;20451;-57
2023/01/29 03:07:43;;;;;;;57.20;28.37;;;0.30;96.50;;;;;;5013793;28;20446;-56
2023/01/29 03:10:16;;;;;;;52.07;27.60;;;0.40;96.80;;;;;;5013602;28;20495;-57
2023/01/29 03:12:46;;;;;;;58.23;26.80;;;0.40;97.10;;;;;;5013749;28;20479;-57
2023/01/29 03:15:23;;;;;;;60.13;27.40;;;0.40;97.20;;;;;;5013874;28;20442;-56
2023/01/29 03:17:55;;;;;;;55.57;26.73;;;0.40;97.20;;;;;;5013590;28;20436;-56
2023/01/29 03:20:28;;;;;;;54.70;27.60;;;0.40;97.30;;;;;;5013291;28;20909;-56
2023/01/29 03:23:01;;;;;;;56.10;26.80;;;0.50;97.30;;;;;;5013466;28;20475;-56
2023/01/29 03:33:51;;;;;;;49.80;27.13;;;0.50;96.80;;;;;;5014132;28;20451;-56
2023/01/29 03:36:22;;;;;;;60.27;26.50;;;0.50;96.70;;;;;;5018304;28;20463;-57
2023/01/29 03:38:49;;;;;;;59.20;25.60;;;0.40;96.50;;;;;;5016322;28;20594;-56
2023/01/29 03:41:24;;;;;;;46.43;26.77;;;0.40;96.50;;;;;;5015970;28;20459;-56
2023/01/29 03:43:59;;;;;;;50.07;26.83;;;0.40;96.40;;;;;;5015865;28;20482;-56
2023/01/29 03:46:32;;;;;;;55.50;28.50;;;0.40;96.50;;;;;;5016009;28;20432;-56
2023/01/29 03:49:07;;;;;;;46.90;25.23;;;0.40;96.40;;;;;;5015605;28;20475;-57
2023/01/29 03:51:38;;;;;;;55.10;26.60;;;0.40;96.30;;;;;;5016066;28;20533;-57
2023/01/29 03:54:12;;;;;;;51.33;26.27;;;0.40;96.20;;;;;;5015780;28;20478;-57
2023/01/29 03:56:51;;;;;;;56.10;25.20;;;0.40;96.10;;;;;;5015881;28;20439;-56
2023/01/29 03:59:26;;;;;;;50.07;27.70;;;0.40;96.00;;;;;;5015591;28;20912;-56
2023/01/29 04:01:58;;;;;;;46.47;25.63;;;0.40;96.00;;;;;;5015741;28;20439;-56
2023/01/29 04:04:28;;;;;;;48.17;26.60;;;0.40;95.90;;;;;;5015478;28;20423;-56
2023/01/29 04:07:01;;;;;;;46.67;26.67;;;0.40;95.90;;;;;;5015455;28;20446;-56
2023/01/29 04:09:31;;;;;;;56.47;26.63;;;0.40;95.90;;;;;;5015617;28;20562;-57
2023/01/29 04:12:05;;;;;;;51.53;27.37;;;0.40;95.90;;;;;;5015573;28;20796;-58
2023/01/29 04:14:32;;;;;;;46.30;25.43;;;0.40;95.90;;;;;;5015365;28;20444;-57
2023/01/29 04:17:06;;;;;;;49.30;26.70;;;0.40;95.90;;;;;;5015660;28;20459;-57
2023/01/29 04:19:34;;;;;;;51.67;28.57;;;0.40;95.90;;;;;;5015634;28;20433;-57
2023/01/29 04:22:06;;;;;;;48.80;27.03;;;0.30;95.90;;;;;;5015442;28;20435;-58
2023/01/29 04:24:34;;;;;;;48.50;27.00;;;0.30;96.10;;;;;;5015236;28;20908;-56
2023/01/29 04:27:19;;;;;;;53.80;27.53;;;0.30;96.20;;;;;;5015638;28;20448;-56
2023/01/29 04:29:57;;;;;;;59.13;28.40;;;0.30;96.20;;;;;;5015354;28;20478;-57
2023/01/29 04:32:31;;;;;;;53.20;29.33;;;0.30;96.60;;;;;;5015263;28;20542;-57
2023/01/29 04:35:04;;;;;;;52.07;27.13;;;0.30;96.40;;;;;;5015529;28;20432;-57
2023/01/29 04:37:39;;;;;;;58.13;30.03;;;0.30;96.60;;;;;;4978741;28;1065639;-58
2023/01/29 04:40:18;;;;;;;51.53;26.83;;;0.30;96.70;;;;;;5016130;28;20439;-57
2023/01/29 04:42:51;;;;;;;55.53;28.83;;;0.30;97.20;;;;;;5016395;28;20479;-57
2023/01/29 04:45:25;;;;;;;54.60;28.90;;;0.30;97.10;;;;;;5015813;28;20428;-56
2023/01/29 04:48:02;;;;;;;60.80;30.33;;;0.30;97.20;;;;;;5016355;28;20774;-57
2023/01/29 04:50:36;;;;;;;56.90;29.67;;;0.30;97.40;;;;;;5016281;28;20467;-57
2023/01/29 04:53:10;;;;;;;57.60;28.23;;;0.20;97.30;;;;;;5016185;28;20486;-57
2023/01/29 04:55:43;;;;;;;52.73;28.40;;;0.30;97.50;;;;;;5016107;28;20850;-57
2023/01/29 04:58:17;;;;;;;54.20;28.80;;;0.20;97.50;;;;;;5015740;28;20439;-57
2023/01/29 05:00:47;;;;;;;55.60;29.60;;;0.20;97.50;;;;;;5016077;28;20792;-58
2023/01/29 05:03:16;;;;;;;54.70;30.50;;;0.20;97.60;;;;;;5015854;28;20486;-56
2023/01/29 05:05:46;;;;;;;62.13;29.23;;;0.20;97.60;;;;;;5015859;28;20459;-58
2023/01/29 05:08:15;;;;;;;68.63;32.77;;;0.20;97.60;;;;;;5015437;28;20833;-57
2023/01/29 05:10:42;;;;;;;58.00;28.20;;;0.20;97.70;;;;;;5015697;28;20486;-58
2023/01/29 05:13:13;;;;;;;54.00;28.57;;;0.20;97.70;;;;;;5015320;28;20492;-57
2023/01/29 05:15:44;;;;;;;57.83;30.77;;;0.10;97.90;;;;;;5035429;28;20454;-57
2023/01/29 05:18:10;;;;;;;51.60;27.10;;;0.10;98.10;;;;;;5035400;28;20432;-57
2023/01/29 05:20:41;;;;;;;60.53;29.90;;;0.10;98.10;;;;;;5035380;28;20427;-57
2023/01/29 05:23:10;;;;;;;57.20;29.97;;;0.10;98.10;;;;;;5034910;28;20993;-57
2023/01/29 05:25:37;;;;;;;60.33;28.20;;;0.10;98.20;;;;;;5035203;28;20489;-57
2023/01/29 05:28:04;;;;;;;50.63;26.70;;;0.10;98.30;;;;;;5035273;28;20486;-57
2023/01/29 05:30:31;;;;;;;57.10;28.47;;;0.10;98.50;;;;;;5035054;28;20529;-57
2023/01/29 05:32:58;;;;;;;55.50;27.60;;;0.10;98.50;;;;;;5035085;28;20482;-57
2023/01/29 05:35:26;;;;;;;53.07;28.77;;;0.10;98.50;;;;;;5035101;28;20454;-57
2023/01/29 05:37:55;;;;;;;50.63;27.57;;;0.10;98.60;;;;;;5034836;28;20521;-57
2023/01/29 05:40:22;;;;;;;57.63;29.33;;;0.10;98.60;;;;;;5034632;28;20508;-57
2023/01/29 05:42:50;;;;;;;61.50;27.77;;;0.20;98.50;;;;;;5035345;28;20506;-58
2023/01/29 05:45:17;;;;;;;59.60;30.20;;;0.20;98.50;;;;;;5034561;28;20870;-57
2023/01/29 05:47:44;;;;;;;60.73;29.67;;;0.30;98.50;;;;;;5034602;28;20497;-57
2023/01/29 05:50:11;;;;;;;52.70;28.17;;;0.30;98.40;;;;;;5034397;28;21018;-57
2023/01/29 05:52:38;;;;;;;53.03;28.50;;;0.30;98.30;;;;;;5034395;28;20805;-57
2023/01/29 05:55:09;;;;;;;58.10;28.90;;;0.30;98.30;;;;;;5034849;28;20451;-57
2023/01/29 05:57:36;;;;;;;62.83;30.80;;;0.30;98.20;;;;;;5033634;28;20912;-57
2023/01/29 06:00:03;;;;;;;63.97;31.00;;;0.30;98.20;;;;;;5034298;28;20932;-57
2023/01/29 06:02:31;;;;;;;53.87;29.27;;;0.20;98.10;;;;;;5034710;28;20467;-57
2023/01/29 06:04:57;;;;;;;49.40;27.33;;;0.30;98.20;;;;;;5034781;28;20485;-56
2023/01/29 06:07:24;;;;;;;53.97;29.17;;;0.20;98.20;;;;;;5035156;28;20463;-57
2023/01/29 06:09:51;;;;;;;61.07;28.83;;;0.20;98.20;;;;;;5034927;28;20491;-57
2023/01/29 06:12:19;;;;;;;61.20;32.63;;;0.30;98.40;;;;;;5034583;28;20481;-57
2023/01/29 06:14:46;;;;;;;68.57;30.20;;;0.20;98.40;;;;;;5035069;28;20462;-56
2023/01/29 06:17:13;;;;;;;60.43;29.53;;;0.30;98.40;;;;;;5034981;28;20478;-57
2023/01/29 06:19:40;;;;;;;63.80;28.07;;;0.30;98.40;;;;;;5036209;28;20420;-56
2023/01/29 06:22:06;;;;;;;67.40;31.30;;;0.30;98.40;;;;;;5034794;28;21050;-57
2023/01/29 06:24:33;;;;;;;63.87;31.07;;;0.30;98.40;;;;;;5035140;28;20795;-57
2023/01/29 06:27:00;;;;;;;60.17;29.70;;;0.30;98.40;;;;;;5034366;28;20459;-58
2023/01/29 06:29:28;;;;;;;52.33;28.90;;;0.30;98.40;;;;;;5034088;28;20486;-57
2023/01/29 06:31:55;;;;;;;60.00;31.30;;;0.40;98.50;;;;;;5035018;28;20455;-58
2023/01/29 06:34:21;;;;;;;62.50;30.20;;;0.40;98.50;;;;;;5034641;28;20467;-57
2023/01/29 06:36:48;;;;;;;62.33;31.53;;;0.50;98.70;;;;;;5034425;28;20455;-57
2023/01/29 06:39:15;;;;;;;56.07;30.33;;;0.50;98.60;;;;;;5033855;28;20462;-57
2023/01/29 06:41:44;;;;;;;63.90;32.50;;;0.50;98.70;;;;;;5033934;28;20514;-57
2023/01/29 06:44:10;;;;;;;67.00;29.70;;;0.50;98.70;;;;;;5033759;28;20831;-57
2023/01/29 06:46:39;;;;;;;54.70;30.37;;;0.60;98.80;;;;;;5033757;28;20455;-58
2023/01/29 06:49:05;;;;;;;62.20;30.57;;;0.60;98.80;;;;;;5033649;28;20542;-57
2023/01/29 06:51:32;;;;;;;66.40;32.60;;;0.60;98.70;;;;;;5032378;28;20560;-57
2023/01/29 06:53:59;;;;;;;63.33;29.20;;;0.70;98.60;;;;;;5033645;28;20471;-57
2023/01/29 06:56:26;;;;;;;57.07;30.93;;;0.60;98.50;;;;;;5033333;28;20950;-57
2023/01/29 06:58:53;;;;;;;56.70;30.23;;;0.70;98.70;;;;;;5033527;28;20447;-57
2023/01/29 07:01:19;;;;;;;52.63;28.07;;;0.70;98.70;;;;;;5033417;28;20450;-56
2023/01/29 07:03:51;;;;;;;65.60;31.50;;;0.70;98.60;;;;;;5033394;28;20812;-57
2023/01/29 07:06:17;;;;;;;63.73;31.20;;;0.70;98.70;;;;;;5033479;28;20793;-57
2023/01/29 07:08:44;;;;;;;60.47;30.67;;;0.60;98.70;;;;;;5033275;28;20451;-58
2023/01/29 07:11:11;;;;;;;62.27;30.20;;;0.70;98.80;;;;;;5033037;28;20851;-56
2023/01/29 07:13:38;;;;;;;58.83;32.07;;;0.70;98.80;;;;;;5033275;28;20470;-57
2023/01/29 07:16:06;;;;;;;55.33;30.47;;;0.70;98.80;;;;;;5033682;28;20446;-57
2023/01/29 07:18:33;;;;;;;54.87;29.40;;;0.70;99.40;;;;;;5033388;28;20553;-57
2023/01/29 07:21:05;;;;;;;56.00;29.70;;;0.70;99.10;;;;;;5033319;28;20812;-58
2023/01/29 07:23:32;;;;;;;57.33;28.87;;;0.70;99.10;;;;;;5033234;28;20471;-57
2023/01/29 07:26:01;;;;;;;58.63;30.23;;;0.70;99.20;;;;;;5033277;28;20443;-57
2023/01/29 07:28:28;;;;;;;61.33;29.97;;;0.80;99.20;;;;;;5033045;28;20982;-56
2023/01/29 07:30:56;;;;;;;55.27;29.67;;;0.80;99.30;;;;;;5033186;28;20513;-56
2023/01/29 07:33:23;;;;;;;62.53;31.50;;;0.80;99.30;;;;;;5033108;28;20561;-57
2023/01/29 07:35:50;;;;;;;61.57;32.80;;;0.80;99.40;;;;;;5033200;28;20481;-57
2023/01/29 07:38:18;;;;;;;58.83;29.53;;;0.90;99.40;;;;;;5032879;28;20454;-57
2023/01/29 07:40:45;;;;;;;68.10;31.50;;;0.90;99.40;;;;;;5033186;28;20446;-58
2023/01/29 07:43:12;;;;;;;58.30;31.23;;;1.00;99.20;;;;;;5032920;28;20478;-58
2023/01/29 07:45:39;;;;;;;56.80;30.40;;;1.00;99.10;;;;;;5033163;28;20454;-56
2023/01/29 07:48:09;;;;;;;60.03;30.03;;;1.00;99.10;;;;;;5033074;28;20461;-56
2023/01/29 07:50:36;;;;;;;58.97;32.50;;;1.00;99.10;;;;;;5032981;28;20477;-56
2023/01/29 07:53:03;;;;;;;53.87;29.80;;;1.00;99.10;;;;;;5032851;28;20467;-56
2023/01/29 07:55:33;;;;;;;56.07;29.83;;;1.00;99.10;;;;;;5032970;28;20455;-57
2023/01/29 07:58:01;;;;;;;57.73;29.70;;;1.10;99.50;;;;;;5033129;28;20431;-57
2023/01/29 08:00:29;;;;;;;62.83;30.93;;;1.10;99.20;;;;;;5032916;28;20441;-56
2023/01/29 08:03:02;;;;;;;57.20;29.33;;;1.10;99.10;;;;;;5033162;28;20462;-57
2023/01/29 08:05:29;;;;;;;55.43;28.67;;;1.10;99.10;;;;;;5033080;28;20435;-56
2023/01/29 08:07:56;;;;;;;59.57;30.47;;;1.20;99.30;;;;;;5033098;28;20441;-57
2023/01/29 08:10:23;;;;;;;51.03;26.70;;;1.20;99.00;;;;;;5032740;28;20471;-57
2023/01/29 08:12:56;;;;;;;60.00;31.17;;;1.20;99.00;;;;;;5031575;28;20479;-56
2023/01/29 08:15:23;;;;;;;50.63;27.77;;;1.20;99.00;;;;;;5013879;28;20994;-57
2023/01/29 08:17:50;;;;;;;55.97;29.83;;;1.20;99.00;;;;;;5012872;28;20952;-56
2023/01/29 08:20:18;;;;;;;54.57;29.57;;;1.20;99.10;;;;;;5014143;28;20455;-57
2023/01/29 08:22:45;;;;;;;57.13;31.80;;;1.30;99.00;;;;;;5016804;28;20475;-58
2023/01/29 08:25:13;;;;;;;56.23;29.30;;;1.30;98.70;;;;;;5016482;28;20802;-57
2023/01/29 08:27:40;;;;;;;54.07;30.00;;;1.30;98.90;;;;;;5016541;28;20994;-57
2023/01/29 08:30:11;;;;;;;54.17;28.73;;;1.30;99.00;;;;;;5016575;28;20473;-57
2023/01/29 08:32:38;;;;;;;57.00;29.30;;;1.40;98.90;;;;;;5015244;28;20806;-58
2023/01/29 08:35:05;;;;;;;56.83;30.57;;;1.40;98.60;;;;;;5016473;28;20440;-56
2023/01/29 08:37:32;;;;;;;57.20;29.83;;;1.50;98.60;;;;;;5016217;28;20468;-57
2023/01/29 08:39:59;;;;;;;56.10;30.00;;;1.50;98.60;;;;;;5016271;28;20842;-56
2023/01/29 08:42:25;;;;;;;57.30;30.83;;;1.60;98.40;;;;;;5015109;28;20475;-56
2023/01/29 08:44:52;;;;;;;53.73;30.47;;;1.60;98.20;;;;;;5016265;28;20462;-56
2023/01/29 08:47:20;;;;;;;59.83;30.13;;;1.60;98.30;;;;;;5016308;28;20437;-57
2023/01/29 08:49:47;;;;;;;55.57;30.80;;;1.70;98.50;;;;;;5015877;28;20451;-57
2023/01/29 08:52:14;;;;;;;64.33;32.10;;;1.70;98.20;;;;;;5015929;28;20449;-57
2023/01/29 08:54:41;;;;;;;53.80;27.70;;;1.80;98.20;;;;;;5016874;28;20450;-57
2023/01/29 08:57:08;;;;;;;57.40;30.47;;;1.90;98.20;;;;;;5016358;28;20453;-57
2023/01/29 08:59:35;;;;;;;57.70;30.83;;;2.00;97.90;;;;;;5016026;28;20455;-57
2023/01/29 09:02:01;;;;;;;57.43;31.47;;;2.00;97.80;;;;;;5015899;28;20543;-57
2023/01/29 09:04:30;;;;;;;56.70;31.73;;;2.10;97.60;;;;;;5016029;28;20448;-56
2023/01/29 09:06:56;;;;;;;58.00;32.70;;;2.20;97.40;;;;;;5015876;28;20440;-57
2023/01/29 09:09:23;;;;;;;56.30;29.43;;;2.20;97.20;;;;;;5015806;28;20449;-56
2023/01/29 09:11:50;;;;;;;53.97;29.67;;;2.20;97.00;;;;;;5015376;28;21028;-57
2023/01/29 09:14:17;;;;;;;53.90;29.03;;;2.20;97.00;;;;;;5015608;28;20484;-56
2023/01/29 09:16:43;;;;;;;50.77;30.10;;;2.20;97.00;;;;;;5015735;28;20468;-56
2023/01/29 09:19:10;;;;;;;55.50;30.53;;;2.30;97.00;;;;;;5015541;28;20455;-57
2023/01/29 09:21:38;;;;;;;62.63;34.50;;;2.30;97.10;;;;;;5015459;28;20445;-57
2023/01/29 09:24:06;;;;;;;53.80;28.47;;;2.40;96.80;;;;;;5015216;28;20559;-56
2023/01/29 09:26:33;;;;;;;53.13;28.73;;;2.40;96.80;;;;;;5015294;28;20971;-57
2023/01/29 09:29:00;;;;;;;47.97;28.77;;;2.50;96.50;;;;;;5015104;28;20456;-56
2023/01/29 09:31:26;;;;;;;51.60;29.50;;;2.50;96.50;;;;;;5014320;28;20482;-57
2023/01/29 09:33:53;;;;;;;53.93;29.33;;;2.50;96.40;;;;;;5014762;28;20477;-57
2023/01/29 09:36:20;;;;;;;51.13;29.13;;;2.50;96.50;;;;;;5015531;28;20432;-56
2023/01/29 09:38:48;;;;;;;48.63;28.80;;;2.60;96.50;;;;;;5015099;28;20471;-56
2023/01/29 09:41:33;;;;;;;52.90;29.30;;;2.70;96.50;;;;;;5015047;28;20494;-57
2023/01/29 09:44:03;;;;;;;50.77;29.67;;;2.80;96.30;;;;;;5015026;28;20475;-56
2023/01/29 09:46:37;;;;;;;47.73;28.10;;;2.80;96.10;;;;;;5015060;28;20801;-56
2023/01/29 09:49:09;;;;;;;50.30;27.80;;;2.80;95.80;;;;;;5015927;28;20456;-56
2023/01/29 09:51:40;;;;;;;44.80;26.63;;;2.80;95.80;;;;;;5014982;28;20485;-56
2023/01/29 09:54:18;;;;;;;52.00;28.70;;;2.80;95.70;;;;;;5014710;28;20814;-57
2023/01/29 09:56:46;;;;;;;55.20;30.93;;;2.90;95.90;;;;;;5015580;28;20443;-57
2023/01/29 09:59:16;;;;;;;53.10;29.33;;;2.90;95.90;;;;;;5014957;28;20440;-57
2023/01/29 10:01:53;;;;;;;49.70;28.30;;;3.00;95.80;;;;;;5014801;28;20449;-57
2023/01/29 10:04:43;;;;;;;51.03;28.90;;;3.10;95.80;;;;;;5014762;28;20510;-57
2023/01/29 10:07:22;;;;;;;50.60;28.50;;;3.10;95.70;;;;;;5014762;28;20453;-57
2023/01/29 10:10:17;;;;;;;46.43;26.60;;;3.20;95.70;;;;;;5014831;28;20443;-56
2023/01/29 10:12:59;;;;;;;48.20;27.57;;;3.20;95.60;;;;;;5014483;28;20478;-57
2023/01/29 10:15:38;;;;;;;50.67;28.27;;;3.20;95.40;;;;;;5014786;28;20439;-56
2023/01/29 10:18:34;;;;;;;48.33;26.80;;;3.30;95.10;;;;;;5015399;28;20424;-57
2023/01/29 10:21:16;;;;;;;45.97;26.17;;;3.30;95.30;;;;;;4993860;28;20968;-56
2023/01/29 10:23:51;;;;;;;48.60;28.13;;;3.30;95.10;;;;;;5014109;28;20984;-57
2023/01/29 10:26:26;;;;;;;49.10;28.10;;;3.30;95.10;;;;;;5015007;28;20429;-56
2023/01/29 10:28:55;;;;;;;47.87;27.60;;;3.40;95.10;;;;;;5014044;28;20933;-56
2023/01/29 10:31:27;;;;;;;50.77;29.20;;;3.40;95.10;;;;;;5014281;28;20541;-57
2023/01/29 10:33:56;;;;;;;48.60;28.70;;;3.40;94.90;;;;;;5014186;28;20470;-56
2023/01/29 10:36:32;;;;;;;50.30;28.20;;;3.50;94.90;;;;;;5013883;28;20908;-57
2023/01/29 10:38:58;;;;;;;47.03;29.20;;;3.50;94.60;;;;;;5013991;28;20470;-56
2023/01/29 10:41:48;;;;;;;50.43;28.97;;;3.50;94.70;;;;;;5013868;28;20426;-56
2023/01/29 10:44:27;;;;;;;45.03;25.57;;;3.50;94.70;;;;;;5013551;28;20559;-57
2023/01/29 10:47:10;;;;;;;44.43;27.10;;;3.60;94.80;;;;;;5013792;28;20443;-56
2023/01/29 10:49:56;;;;;;;45.20;27.40;;;3.60;94.60;;;;;;5013974;28;20942;-56
2023/01/29 10:52:35;;;;;;;47.60;28.40;;;3.60;94.60;;;;;;5013917;28;20491;-56
2023/01/29 10:55:13;;;;;;;49.47;30.77;;;3.70;94.60;;;;;;5014001;28;20436;-56
2023/01/29 10:57:58;;;;;;;46.80;27.90;;;3.70;94.60;;;;;;5013889;28;20455;-56
2023/01/29 11:00:29;;;;;;;47.40;27.30;;;3.70;94.60;;;;;;5013827;28;20449;-55
2023/01/29 11:02:56;;;;;;;47.30;28.63;;;3.80;94.50;;;;;;5014275;28;20475;-57
2023/01/29 11:05:29;;;;;;;58.93;28.73;;;3.90;94.60;;;;;;5013814;28;20445;-57
2023/01/29 11:08:04;;;;;;;57.60;29.60;;;3.90;94.20;;;;;;5013832;28;20794;-57
2023/01/29 11:10:33;;;;;;;43.77;27.60;;;4.00;93.90;;;;;;5013626;28;20430;-57
2023/01/29 11:13:03;;;;;;;50.27;28.00;;;4.00;94.10;;;;;;5013508;28;20513;-57
2023/01/29 11:15:32;;;;;;;51.00;29.23;;;4.10;94.00;;;;;;5013410;28;21064;-57
2023/01/29 11:18:09;;;;;;;47.03;27.83;;;4.10;93.90;;;;;;5013705;28;20431;-57
2023/01/29 11:20:36;;;;;;;45.63;26.67;;;4.10;93.90;;;;;;5013331;28;20930;-57
2023/01/29 11:23:03;;;;;;;48.50;27.10;;;4.10;93.90;;;;;;5013787;28;20473;-57
2023/01/29 11:25:31;;;;;;;43.70;26.03;;;4.20;94.10;;;;;;5013786;28;20461;-57
2023/01/29 11:28:01;;;;;;;46.77;27.37;;;4.20;93.90;;;;;;5013570;28;20485;-57
2023/01/29 11:30:31;;;;;;;50.07;29.10;;;4.20;93.80;;;;;;5014176;28;20449;-57
2023/01/29 11:33:07;;;;;;;44.80;26.80;;;4.20;93.70;;;;;;5013274;28;20857;-57
2023/01/29 11:35:36;;;;;;;47.43;28.40;;;4.10;93.70;;;;;;5013571;28;20501;-57
2023/01/29 11:38:19;;;;;;;49.53;28.10;;;4.20;93.70;;;;;;5013239;28;20965;-57
2023/01/29 11:40:46;;;;;;;49.37;27.17;;;4.10;93.80;;;;;;5013544;28;20443;-57
2023/01/29 11:43:23;;;;;;;41.67;24.13;;;4.10;94.00;;;;;;5013423;28;20832;-57
2023/01/29 11:45:52;;;;;;;51.53;28.87;;;4.10;94.10;;;;;;5013174;28;20441;-57
2023/01/29 11:48:21;;;;;;;48.30;29.53;;;4.10;94.20;;;;;;5013377;28;20458;-57
2023/01/29 11:50:56;;;;;;;54.90;31.10;;;4.20;94.40;;;;;;5013195;28;20458;-58
2023/01/29 11:53:37;;;;;;;51.20;28.30;;;4.30;94.20;;;;;;5013348;28;20475;-57
2023/01/29 11:56:13;;;;;;;56.57;30.93;;;4.30;93.90;;;;;;5015879;28;20428;-57
2023/01/29 11:58:42;;;;;;;45.90;26.10;;;4.40;93.90;;;;;;5017241;28;20448;-57
2023/01/29 12:01:10;;;;;;;44.97;26.50;;;4.50;93.60;;;;;;5017128;28;20446;-56
2023/01/29 12:03:43;;;;;;;42.57;25.47;;;4.50;93.70;;;;;;5016943;28;21003;-57
2023/01/29 12:06:17;;;;;;;47.83;28.00;;;4.40;93.70;;;;;;5016744;28;20919;-56
2023/01/29 12:08:44;;;;;;;41.80;26.43;;;4.40;93.80;;;;;;5018031;28;20442;-56
2023/01/29 12:11:14;;;;;;;43.53;25.50;;;4.40;93.80;;;;;;5036381;28;20482;-56
2023/01/29 12:13:43;;;;;;;41.03;25.60;;;4.50;93.90;;;;;;5036517;28;20483;-56
2023/01/29 12:16:20;;;;;;;41.20;24.43;;;4.50;93.80;;;;;;5037039;28;20433;-57
2023/01/29 12:18:50;;;;;;;44.73;26.60;;;4.60;94.10;;;;;;5036624;28;20435;-57
2023/01/29 12:21:23;;;;;;;44.70;25.60;;;4.60;93.70;;;;;;5036451;28;20834;-56
2023/01/29 12:23:54;;;;;;;45.50;25.07;;;4.60;93.70;;;;;;5036394;28;20478;-57
2023/01/29 12:26:29;;;;;;;43.73;25.97;;;4.70;93.60;;;;;;5036470;28;20431;-56
2023/01/29 12:29:25;;;;;;;41.77;25.90;;;4.60;93.60;;;;;;5036295;28;20437;-56
2023/01/29 12:32:03;;;;;;;45.17;27.17;;;4.70;93.70;;;;;;5036447;28;20471;-56
2023/01/29 12:34:43;;;;;;;51.27;27.87;;;4.80;93.70;;;;;;5036352;28;20772;-56
2023/01/29 12:37:16;;;;;;;47.50;26.60;;;4.80;93.50;;;;;;5035807;28;20575;-57
2023/01/29 12:39:43;;;;;;;41.10;26.40;;;4.80;93.30;;;;;;5036300;28;20449;-56
2023/01/29 12:42:16;;;;;;;42.27;23.33;;;4.80;93.40;;;;;;5036828;28;20439;-57
2023/01/29 12:44:50;;;;;;;37.13;22.70;;;4.80;93.20;;;;;;5036113;28;20434;-57
2023/01/29 12:47:23;;;;;;;39.33;24.37;;;4.80;93.00;;;;;;5036231;28;20435;-56
2023/01/29 12:49:52;;;;;;;39.17;22.40;;;4.80;92.80;;;;;;5036185;28;20449;-57
2023/01/29 12:52:26;;;;;;;38.77;23.00;;;4.70;92.80;;;;;;5035836;28;20477;-57
2023/01/29 12:54:58;;;;;;;36.53;22.30;;;4.70;92.90;;;;;;5035898;28;20923;-57
2023/01/29 12:57:34;;;;;;;40.33;23.60;;;4.70;92.80;;;;;;5036213;28;20919;-56
2023/01/29 13:00:09;;;;;;;40.67;23.60;;;4.60;92.90;;;;;;5036211;28;20449;-56
2023/01/29 13:02:43;;;;;;;46.80;24.70;;;4.60;93.20;;;;;;5036033;28;20477;-55
2023/01/29 13:05:23;;;;;;;42.63;24.73;;;4.60;93.20;;;;;;5036318;28;20445;-57
2023/01/29 13:07:56;;;;;;;37.73;22.03;;;4.60;93.20;;;;;;5035960;28;20445;-57
2023/01/29 13:10:27;;;;;;;35.90;20.97;;;4.60;93.50;;;;;;5036355;28;20435;-56
2023/01/29 13:13:00;;;;;;;39.33;21.83;;;4.70;93.40;;;;;;5036266;28;20901;-56
2023/01/29 13:15:33;;;;;;;37.57;21.23;;;4.70;93.30;;;;;;5036926;28;20431;-56
2023/01/29 13:18:20;;;;;;;37.60;22.47;;;4.80;93.10;;;;;;5037193;28;20433;-56
2023/01/29 13:20:49;;;;;;;32.83;18.37;;;4.90;93.10;;;;;;5035960;28;20427;-56
2023/01/29 13:23:20;;;;;;;32.57;20.60;;;4.90;92.80;;;;;;5035469;28;20471;-56